Time;durP1;ratioP1;P1;durP2;ratioP2;P2;SDS_P1;SDS_P2;PMS_P1;PMS_P2;Temp;Humidity;BMP_temperature;BMP_pressure;BME280_temperature;BME280_humidity;BME280_pressure;Samples;Min_cycle;Max_cycle;Signal;HPM_P1;HPM_P2
2023/12/18 00:01:46;;;;;;;17.87;13.57;;;;;;;1.86;90.74;101368.38;5092479;28;20440;-71
2023/12/18 00:04:14;;;;;;;17.90;13.00;;;;;;;1.79;89.92;101356.59;5085126;28;20474;-70
2023/12/18 00:06:41;;;;;;;18.97;13.77;;;;;;;1.73;90.88;101350.91;5072241;28;20434;-71
2023/12/18 00:09:08;;;;;;;17.90;12.97;;;;;;;1.71;90.80;101353.59;5071680;28;20489;-71
2023/12/18 00:11:34;;;;;;;16.43;12.50;;;;;;;1.68;90.57;101353.81;5072207;28;20441;-71
2023/12/18 00:14:02;;;;;;;17.03;12.77;;;;;;;1.65;90.47;101334.81;5071695;28;21023;-71
2023/12/18 00:16:29;;;;;;;21.90;14.30;;;;;;;1.62;90.65;101337.59;5071733;28;20499;-70
2023/12/18 00:18:55;;;;;;;18.00;13.00;;;;;;;1.55;90.87;101336.31;5071675;28;20480;-71
2023/12/18 00:21:23;;;;;;;16.60;13.63;;;;;;;1.51;91.49;101334.81;5072886;28;20537;-71
2023/12/18 00:23:50;;;;;;;15.43;12.57;;;;;;;1.62;90.71;101333.22;5071745;28;20474;-70
2023/12/18 00:26:17;;;;;;;16.70;12.00;;;;;;;1.62;91.10;101332.38;5071907;28;20442;-71
2023/12/18 00:28:43;;;;;;;22.17;14.30;;;;;;;1.69;91.08;101329.31;5071580;28;20450;-71
2023/12/18 00:31:10;;;;;;;24.03;14.30;;;;;;;1.65;90.22;101317.34;5071418;28;20436;-72
2023/12/18 00:33:37;;;;;;;17.87;12.47;;;;;;;1.70;90.41;101302.16;5071313;28;20485;-72
2023/12/18 00:36:04;;;;;;;16.00;12.67;;;;;;;1.71;90.64;101316.13;5073867;28;20957;-71
2023/12/18 00:38:32;;;;;;;19.93;14.00;;;;;;;1.46;90.79;101276.69;5091120;28;20459;-71
2023/12/18 00:40:59;;;;;;;19.07;13.57;;;;;;;1.74;90.01;101311.50;5091906;28;20452;-71
2023/12/18 00:43:26;;;;;;;22.07;14.00;;;;;;;1.81;90.17;101311.97;5091740;28;20477;-70
2023/12/18 00:45:53;;;;;;;19.57;12.87;;;;;;;1.91;90.57;101326.19;5090669;28;20698;-71
2023/12/18 00:48:19;;;;;;;15.93;11.87;;;;;;;2.09;90.11;101325.88;5091542;28;20498;-71
2023/12/18 00:50:46;;;;;;;23.40;13.20;;;;;;;2.23;89.28;101331.06;5091353;28;20441;-73
2023/12/18 00:53:16;;;;;;;19.53;13.80;;;;;;;2.32;88.48;101329.63;5091889;28;20445;-73
2023/12/18 00:55:44;;;;;;;37.87;20.20;;;;;;;2.30;88.85;101331.50;5077024;28;21012;-73
2023/12/18 00:58:11;;;;;;;32.70;19.10;;;;;;;2.21;88.30;101327.66;5071261;28;20430;-72
2023/12/18 01:00:37;;;;;;;17.70;12.60;;;;;;;2.33;88.24;101326.88;5071128;28;20441;-72
2023/12/18 01:03:04;;;;;;;18.30;13.50;;;;;;;2.44;87.67;101345.41;5076351;28;20878;-70
2023/12/18 01:05:32;;;;;;;12.50;10.63;;;;;;;2.45;86.71;101341.81;5090925;28;20945;-70
2023/12/18 01:07:59;;;;;;;13.70;11.17;;;;;;;2.45;86.47;101339.19;5091339;28;20441;-73
2023/12/18 01:10:26;;;;;;;12.93;11.53;;;;;;;2.46;86.95;101338.28;5072177;28;20929;-71
2023/12/18 01:12:54;;;;;;;14.87;11.37;;;;;;;2.53;87.03;101339.53;5071754;28;20446;-71
2023/12/18 01:15:21;;;;;;;18.17;12.33;;;;;;;2.58;86.60;101331.38;5071385;28;20438;-71
2023/12/18 01:17:47;;;;;;;14.57;10.87;;;;;;;2.58;85.25;101319.09;5071050;28;20507;-70
2023/12/18 01:20:14;;;;;;;16.97;10.90;;;;;;;2.57;85.54;101325.28;5070862;28;20523;-70
2023/12/18 01:22:41;;;;;;;15.07;12.33;;;;;;;2.50;85.61;101312.69;5071577;28;20491;-71
2023/12/18 01:25:08;;;;;;;14.47;11.63;;;;;;;2.36;86.09;101310.97;5086407;28;21045;-70
2023/12/18 01:27:35;;;;;;;14.77;12.20;;;;;;;2.29;86.44;101304.44;5091229;28;20437;-70
2023/12/18 01:30:04;;;;;;;15.93;13.10;;;;;;;2.14;86.14;101305.44;5091353;28;20441;-71
2023/12/18 01:32:32;;;;;;;15.93;12.20;;;;;;;2.09;86.84;101297.03;5093448;28;21073;-71
2023/12/18 01:34:59;;;;;;;15.27;11.90;;;;;;;2.18;86.91;101291.19;5094964;28;20441;-71
2023/12/18 01:37:26;;;;;;;18.93;13.33;;;;;;;2.19;86.30;101277.13;5080969;28;20491;-72
2023/12/18 01:39:52;;;;;;;18.87;14.00;;;;;;;2.29;86.63;101272.16;5074836;28;20446;-71
2023/12/18 01:42:19;;;;;;;17.30;13.87;;;;;;;2.39;87.16;101279.31;5091465;28;20517;-71
2023/12/18 01:44:48;;;;;;;15.97;13.30;;;;;;;2.45;86.13;101273.66;5094606;28;20472;-71
2023/12/18 01:47:17;;;;;;;20.83;15.67;;;;;;;2.51;86.07;101260.13;5095001;28;20825;-71
2023/12/18 01:49:44;;;;;;;17.50;14.50;;;;;;;2.57;85.41;101251.84;5094649;28;20463;-71
2023/12/18 01:52:11;;;;;;;20.60;14.70;;;;;;;2.50;85.45;101252.38;5094707;28;20444;-72
2023/12/18 01:54:38;;;;;;;21.07;15.03;;;;;;;2.51;85.76;101256.66;5094529;28;20809;-71
2023/12/18 01:57:06;;;;;;;24.87;16.27;;;;;;;2.58;86.48;101264.00;5093601;28;20433;-71
2023/12/18 01:59:34;;;;;;;27.23;18.40;;;;;;;2.54;85.65;101264.34;5074256;28;20828;-71
2023/12/18 02:02:01;;;;;;;46.47;25.00;;;;;;;2.55;85.65;101256.38;5074174;28;20446;-70
2023/12/18 02:04:30;;;;;;;33.80;21.47;;;;;;;2.60;85.48;101262.16;5074060;28;20508;-71
2023/12/18 02:07:00;;;;;;;26.20;17.87;;;;;;;2.56;85.09;101258.03;5074113;28;20990;-70
2023/12/18 02:09:28;;;;;;;23.60;15.07;;;;;;;2.48;85.35;101264.72;5074172;28;20787;-71
2023/12/18 02:11:54;;;;;;;15.40;12.73;;;;;;;2.26;86.43;101256.59;5074189;28;20499;-71
2023/12/18 02:14:21;;;;;;;16.10;10.87;;;;;;;2.19;86.87;101261.41;5075155;28;20453;-71
2023/12/18 02:16:48;;;;;;;13.77;10.83;;;;;;;2.14;86.76;101255.63;5094056;28;20441;-71
2023/12/18 02:19:25;;;;;;;11.47;10.27;;;;;;;2.23;86.34;101256.81;5094428;28;20956;-71
2023/12/18 02:21:54;;;;;;;10.23;9.20;;;;;;;2.35;85.57;101261.25;5094354;28;20959;-71
2023/12/18 02:24:23;;;;;;;10.83;9.73;;;;;;;2.46;85.87;101259.63;5094167;28;20481;-71
2023/12/18 02:26:50;;;;;;;10.37;9.47;;;;;;;2.56;86.08;101251.94;5093664;28;20433;-71
2023/12/18 02:29:16;;;;;;;12.07;10.17;;;;;;;2.50;85.20;101250.59;5073730;28;20868;-72
2023/12/18 02:31:43;;;;;;;11.97;10.50;;;;;;;2.49;85.02;101243.66;5073882;28;20539;-71
2023/12/18 02:34:10;;;;;;;11.03;9.90;;;;;;;2.57;85.48;101246.59;5073927;28;20862;-71
2023/12/18 02:36:37;;;;;;;10.40;9.27;;;;;;;2.63;85.07;101243.59;5073354;28;20518;-71
2023/12/18 02:39:04;;;;;;;10.20;8.53;;;;;;;2.62;85.13;101241.88;5073568;28;20468;-71
2023/12/18 02:41:32;;;;;;;9.97;9.07;;;;;;;2.62;84.67;101252.38;5073341;28;20496;-71
2023/12/18 02:43:58;;;;;;;11.73;9.47;;;;;;;2.61;84.96;101249.88;5072417;28;20474;-71
2023/12/18 02:46:25;;;;;;;11.07;9.97;;;;;;;2.68;85.62;101257.22;5073635;28;20512;-71
2023/12/18 02:48:52;;;;;;;10.00;9.10;;;;;;;2.70;85.67;101247.44;5073641;28;20499;-71
2023/12/18 02:51:18;;;;;;;10.10;9.03;;;;;;;2.64;84.95;101236.53;5073629;28;20500;-71
2023/12/18 02:53:45;;;;;;;10.77;9.63;;;;;;;2.76;84.74;101252.31;5073297;28;20442;-70
2023/12/18 02:56:13;;;;;;;12.03;10.03;;;;;;;2.51;84.98;101205.06;5073439;28;20476;-70
2023/12/18 02:58:42;;;;;;;13.87;9.43;;;;;;;2.75;84.98;101234.88;5072898;28;20476;-70
2023/12/18 03:01:08;;;;;;;10.40;8.77;;;;;;;2.75;84.33;101234.03;5073280;28;20442;-72
2023/12/18 03:03:35;;;;;;;10.23;9.10;;;;;;;2.68;84.45;101232.75;5073393;28;20457;-71
2023/12/18 03:06:02;;;;;;;11.87;10.03;;;;;;;2.68;84.85;101241.50;5072948;28;20507;-72
2023/12/18 03:08:28;;;;;;;12.73;9.97;;;;;;;2.52;84.75;101226.88;5072991;28;20484;-71
2023/12/18 03:10:55;;;;;;;11.87;9.70;;;;;;;2.72;85.09;101253.44;5072706;28;20442;-71
2023/12/18 03:13:22;;;;;;;14.50;10.70;;;;;;;2.59;85.17;101252.59;5072912;28;20442;-70
2023/12/18 03:15:50;;;;;;;16.07;11.73;;;;;;;2.46;84.88;101243.03;5087677;28;20437;-71
2023/12/18 03:18:17;;;;;;;15.30;11.07;;;;;;;2.55;84.96;101261.63;5093226;28;20494;-71
2023/12/18 03:20:44;;;;;;;14.33;11.20;;;;;;;2.56;85.19;101255.41;5092863;28;20441;-71
2023/12/18 03:23:10;;;;;;;12.50;11.20;;;;;;;2.57;85.18;101257.09;5092958;28;20475;-71
2023/12/18 03:25:37;;;;;;;16.07;12.27;;;;;;;2.60;84.70;101256.91;5092841;28;20476;-70
2023/12/18 03:28:04;;;;;;;14.60;12.07;;;;;;;2.56;84.85;101260.66;5093337;28;20510;-70
2023/12/18 03:30:31;;;;;;;18.10;13.27;;;;;;;2.56;86.00;101255.41;5093290;28;20433;-71
2023/12/18 03:32:59;;;;;;;13.60;10.63;;;;;;;2.56;85.49;101244.94;5076044;28;20511;-70
2023/12/18 03:35:26;;;;;;;11.00;9.90;;;;;;;2.56;85.37;101236.22;5072640;28;20528;-70
2023/12/18 03:37:53;;;;;;;11.87;10.23;;;;;;;2.55;85.41;101238.00;5090176;28;20528;-71
2023/12/18 03:40:20;;;;;;;13.87;11.00;;;;;;;2.46;84.94;101233.38;5092831;28;20437;-71
2023/12/18 03:42:46;;;;;;;14.53;10.93;;;;;;;2.33;85.32;101237.75;5077222;28;20442;-71
2023/12/18 03:45:13;;;;;;;12.50;10.37;;;;;;;2.14;85.65;101225.94;5072583;28;20527;-71
2023/12/18 03:47:40;;;;;;;12.33;9.97;;;;;;;2.04;86.15;101220.47;5072122;28;20795;-71
2023/12/18 03:50:10;;;;;;;12.37;10.33;;;;;;;2.01;86.77;101220.69;5072433;28;20499;-71
2023/12/18 03:52:37;;;;;;;13.43;10.73;;;;;;;1.90;87.88;101217.06;5072245;28;20499;-71
2023/12/18 03:55:04;;;;;;;13.60;10.30;;;;;;;1.96;87.86;101209.63;5071281;28;20495;-71
2023/12/18 03:57:30;;;;;;;10.80;9.20;;;;;;;2.00;87.81;101211.13;5084246;28;20447;-71
2023/12/18 03:59:57;;;;;;;10.50;8.87;;;;;;;1.96;88.17;101208.81;5092056;28;20866;-72
2023/12/18 04:02:24;;;;;;;12.20;9.83;;;;;;;1.92;88.07;101197.69;5092051;28;20437;-71
2023/12/18 04:04:51;;;;;;;12.10;9.57;;;;;;;1.87;88.49;101202.38;5092105;28;20924;-71
2023/12/18 04:07:19;;;;;;;18.40;10.60;;;;;;;1.76;88.57;101194.38;5092209;28;20945;-70
2023/12/18 04:09:46;;;;;;;13.63;10.57;;;;;;;1.99;88.93;101203.34;5092071;28;20937;-70
2023/12/18 04:12:13;;;;;;;11.20;9.83;;;;;;;2.14;88.27;101211.06;5091907;28;20889;-71
2023/12/18 04:14:39;;;;;;;12.77;9.77;;;;;;;2.28;87.83;101212.78;5078721;28;20441;-71
2023/12/18 04:17:06;;;;;;;9.50;8.60;;;;;;;2.38;87.19;101217.31;5071946;28;20449;-71
2023/12/18 04:19:33;;;;;;;10.67;9.63;;;;;;;2.44;86.51;101224.75;5071678;28;20795;-71
2023/12/18 04:22:00;;;;;;;10.70;9.13;;;;;;;2.42;86.00;101210.94;5071533;28;20505;-71
2023/12/18 04:24:28;;;;;;;10.80;9.80;;;;;;;2.48;86.13;101231.50;5071778;28;20481;-71
2023/12/18 04:26:55;;;;;;;9.57;8.57;;;;;;;2.51;86.11;101226.03;5071487;28;20503;-71
2023/12/18 04:29:21;;;;;;;9.03;8.23;;;;;;;2.54;85.37;101225.84;5071547;28;20995;-72
2023/12/18 04:31:48;;;;;;;8.93;8.13;;;;;;;2.59;86.21;101229.00;5071785;28;20510;-70
2023/12/18 04:34:15;;;;;;;8.83;7.97;;;;;;;2.61;85.33;101223.66;5071506;28;20434;-71
2023/12/18 04:36:42;;;;;;;10.00;9.00;;;;;;;2.63;85.57;101225.22;5079261;28;20448;-70
2023/12/18 04:39:08;;;;;;;9.93;8.93;;;;;;;2.71;86.06;101237.81;5090730;28;20948;-71
2023/12/18 04:41:36;;;;;;;10.47;8.87;;;;;;;2.74;85.64;101248.09;5092040;28;20445;-71
2023/12/18 04:44:05;;;;;;;9.73;8.63;;;;;;;2.75;85.76;101240.13;5091843;28;20425;-70
2023/12/18 04:46:35;;;;;;;11.17;9.97;;;;;;;2.78;85.47;101249.59;5091735;28;20494;-70
2023/12/18 04:49:01;;;;;;;10.53;9.40;;;;;;;2.79;85.22;101246.84;5075771;28;20533;-72
2023/12/18 04:51:28;;;;;;;10.00;9.00;;;;;;;2.79;84.27;101241.59;5071253;28;20434;-71
2023/12/18 04:53:56;;;;;;;10.57;9.50;;;;;;;2.69;84.81;101240.53;5071603;28;20461;-71
2023/12/18 04:56:23;;;;;;;12.10;8.73;;;;;;;2.60;85.10;101246.41;5071512;28;20515;-71
2023/12/18 04:58:51;;;;;;;12.83;9.70;;;;;;;2.54;86.66;101241.59;5071566;28;20453;-71
2023/12/18 05:01:18;;;;;;;10.50;9.40;;;;;;;2.49;86.16;101253.31;5071250;28;20434;-73
2023/12/18 05:03:45;;;;;;;10.63;9.63;;;;;;;2.41;86.37;101251.19;5072482;28;20487;-71
2023/12/18 05:06:22;;;;;;;10.67;9.60;;;;;;;2.34;86.36;101244.69;5072683;28;20481;-71
2023/12/18 05:08:49;;;;;;;12.00;9.90;;;;;;;2.33;86.56;101232.50;5077502;28;20441;-71
2023/12/18 05:11:17;;;;;;;15.50;11.00;;;;;;;2.48;87.54;101241.13;5075551;28;20515;-71
2023/12/18 05:13:44;;;;;;;11.43;10.23;;;;;;;2.51;87.13;101235.69;5074779;28;20442;-71
2023/12/18 05:16:13;;;;;;;12.77;11.17;;;;;;;2.49;86.81;101224.47;5074897;28;20449;-71
2023/12/18 05:18:40;;;;;;;13.87;11.80;;;;;;;2.55;86.57;101234.53;5074831;28;20434;-71
2023/12/18 05:21:07;;;;;;;21.50;17.03;;;;;;;2.18;86.30;101175.84;5076144;28;20998;-72
2023/12/18 05:23:34;;;;;;;33.33;23.57;;;;;;;2.44;86.87;101216.91;5075190;28;20441;-71
2023/12/18 05:26:01;;;;;;;21.50;15.63;;;;;;;2.39;86.71;101211.13;5074706;28;20474;-72
2023/12/18 05:28:28;;;;;;;19.83;13.60;;;;;;;2.24;88.10;101206.06;5074726;28;20511;-71
2023/12/18 05:30:55;;;;;;;14.87;11.73;;;;;;;2.24;87.79;101208.69;5074992;28;20442;-71
2023/12/18 05:33:25;;;;;;;15.73;12.23;;;;;;;2.30;88.04;101206.50;5074445;28;20599;-71
2023/12/18 05:35:51;;;;;;;15.37;13.13;;;;;;;2.32;87.69;101204.59;5075406;28;20440;-72
2023/12/18 05:38:18;;;;;;;17.67;12.40;;;;;;;2.28;88.43;101200.50;5094023;28;20851;-72
2023/12/18 05:40:45;;;;;;;19.20;12.67;;;;;;;2.12;88.52;101205.09;5094404;28;20437;-72
2023/12/18 05:43:11;;;;;;;315.73;117.43;;;;;;;2.06;88.13;101200.25;5094905;28;20436;-73
2023/12/18 05:45:38;;;;;;;201.43;77.67;;;;;;;2.12;88.87;101202.47;5094603;28;20999;-73
2023/12/18 05:48:06;;;;;;;88.57;37.43;;;;;;;2.17;89.27;101203.00;5094487;28;20448;-72
2023/12/18 05:50:34;;;;;;;38.97;21.73;;;;;;;2.23;89.52;101205.22;5094121;28;20441;-71
2023/12/18 05:53:01;;;;;;;25.53;17.77;;;;;;;2.27;88.79;101201.47;5094744;28;20531;-72
2023/12/18 05:55:27;;;;;;;19.83;16.30;;;;;;;2.33;88.68;101195.78;5076517;28;20890;-72
2023/12/18 05:57:54;;;;;;;28.80;19.03;;;;;;;2.38;88.64;101198.13;5074148;28;20918;-72
2023/12/18 06:00:21;;;;;;;33.70;21.37;;;;;;;2.44;88.36;101187.19;5074503;28;20487;-78
2023/12/18 06:02:48;;;;;;;28.07;17.43;;;;;;;2.39;88.66;101190.16;5073878;28;20441;-73
2023/12/18 06:05:15;;;;;;;36.23;20.77;;;;;;;2.46;88.62;101196.69;5074449;28;20481;-73
2023/12/18 06:07:43;;;;;;;27.37;18.63;;;;;;;2.52;88.25;101196.25;5074219;28;20446;-72
2023/12/18 06:10:10;;;;;;;22.40;17.20;;;;;;;2.57;88.92;101194.16;5073971;28;20949;-73
2023/12/18 06:12:37;;;;;;;22.63;17.83;;;;;;;2.65;88.10;101202.34;5091273;28;20514;-72
2023/12/18 06:15:05;;;;;;;26.53;18.60;;;;;;;2.71;87.85;101209.81;5094362;28;20445;-69
2023/12/18 06:17:32;;;;;;;26.60;17.13;;;;;;;2.77;87.59;101200.69;5093152;28;20473;-75
2023/12/18 06:19:58;;;;;;;24.50;17.37;;;;;;;2.90;88.16;101199.72;5094442;28;20441;-75
2023/12/18 06:22:25;;;;;;;25.20;17.37;;;;;;;2.94;87.81;101195.09;5094531;28;20449;-75
2023/12/18 06:24:54;;;;;;;24.17;18.33;;;;;;;3.09;88.29;101189.63;5092499;28;20437;-77
2023/12/18 06:27:20;;;;;;;25.37;17.67;;;;;;;3.22;87.93;101172.06;5092888;28;20824;-79
2023/12/18 06:29:47;;;;;;;28.97;18.10;;;;;;;3.52;87.20;101184.78;5092435;28;20448;-77
2023/12/18 06:32:14;;;;;;;24.67;17.13;;;;;;;3.74;86.41;101185.75;5092139;28;20472;-77
2023/12/18 06:34:42;;;;;;;23.70;17.30;;;;;;;4.00;85.38;101182.06;5079779;28;20438;-75
2023/12/18 06:37:09;;;;;;;24.70;17.30;;;;;;;4.22;84.45;101189.19;5079033;28;20446;-75
2023/12/18 06:39:36;;;;;;;19.97;16.30;;;;;;;4.49;84.68;101179.22;5077763;28;20940;-75
2023/12/18 06:42:04;;;;;;;24.97;17.17;;;;;;;4.73;84.13;101183.47;5078087;28;20196;-76
2023/12/18 06:44:31;;;;;;;27.53;19.20;;;;;;;5.06;83.30;101182.63;5070646;28;20188;-72
2023/12/18 06:46:58;;;;;;;28.30;20.13;;;;;;;5.33;80.44;101191.88;5070092;28;20284;-76
2023/12/18 06:49:24;;;;;;;37.20;26.73;;;;;;;5.61;78.50;101201.84;5069236;28;20196;-75
2023/12/18 06:51:51;;;;;;;32.80;21.47;;;;;;;5.87;78.64;101194.53;5067565;28;20353;-77
2023/12/18 06:54:18;;;;;;;27.20;22.17;;;;;;;6.05;77.04;101197.47;5066949;28;20198;-68
2023/12/18 06:56:45;;;;;;;24.13;20.13;;;;;;;6.37;76.44;101203.56;5065991;28;20257;-72
2023/12/18 06:59:13;;;;;;;23.13;18.43;;;;;;;6.71;74.09;101213.81;5069518;28;20196;-72
2023/12/18 07:01:40;;;;;;;22.67;18.83;;;;;;;7.16;74.41;101206.41;5067393;28;20732;-73
2023/12/18 07:04:06;;;;;;;20.47;16.07;;;;;;;7.67;75.60;101205.31;5084984;28;20199;-68
2023/12/18 07:06:33;;;;;;;18.70;14.33;;;;;;;7.91;71.96;101212.88;5088748;28;20963;-68
2023/12/18 07:09:00;;;;;;;16.20;14.50;;;;;;;8.28;70.04;101221.84;5089086;28;20865;-68
2023/12/18 07:11:27;;;;;;;15.80;13.80;;;;;;;8.50;68.36;101240.13;5072261;28;20199;-72
2023/12/18 07:13:53;;;;;;;22.90;14.53;;;;;;;8.84;66.71;101238.69;5073877;28;20200;-68
2023/12/18 07:16:22;;;;;;;17.83;15.07;;;;;;;9.00;65.13;101246.88;5073987;28;20199;-66
2023/12/18 07:18:49;;;;;;;19.20;14.37;;;;;;;9.07;64.59;101238.19;5089164;28;20199;-66
2023/12/18 07:21:16;;;;;;;26.07;16.03;;;;;;;9.32;64.03;101247.34;5088850;28;20752;-68
2023/12/18 07:23:43;;;;;;;19.63;15.43;;;;;;;9.58;64.11;101243.03;5072394;28;20191;-67
2023/12/18 07:26:12;;;;;;;30.23;18.80;;;;;;;9.78;62.86;101249.91;5087547;28;20285;-67
2023/12/18 07:28:39;;;;;;;17.90;13.33;;;;;;;10.00;60.30;101260.13;5097792;28;20202;-67
2023/12/18 07:31:06;;;;;;;12.13;10.67;;;;;;;10.19;58.98;101255.56;5096273;28;20195;-66
2023/12/18 07:33:35;;;;;;;15.00;12.23;;;;;;;10.37;60.32;101258.22;5091260;28;20283;-66
2023/12/18 07:36:02;;;;;;;10.77;9.77;;;;;;;10.45;57.99;101272.41;5082786;28;20195;-66
2023/12/18 07:38:30;;;;;;;10.97;9.87;;;;;;;10.15;57.98;101248.03;5085617;28;20206;-67
2023/12/18 07:40:56;;;;;;;12.03;11.03;;;;;;;9.94;59.71;101242.16;5068870;28;20195;-68
2023/12/18 07:43:23;;;;;;;19.20;17.10;;;;;;;10.23;60.01;101256.09;5086416;28;20282;-67
2023/12/18 07:45:50;;;;;;;16.33;14.67;;;;;;;10.50;59.47;101240.09;5087223;28;20318;-67
2023/12/18 07:48:19;;;;;;;12.93;11.63;;;;;;;10.92;57.70;101254.38;5087436;28;20199;-67
2023/12/18 07:50:48;;;;;;;10.90;9.80;;;;;;;11.19;56.61;101254.22;5089920;28;20209;-64
2023/12/18 07:53:15;;;;;;;12.23;9.47;;;;;;;11.25;56.08;101253.59;5091484;28;20191;-64
2023/12/18 07:55:41;;;;;;;19.03;13.87;;;;;;;11.41;53.52;101244.84;5087312;28;20717;-66
2023/12/18 07:58:08;;;;;;;18.30;13.33;;;;;;;11.24;53.83;101238.63;5090300;28;20195;-65
2023/12/18 08:00:35;;;;;;;15.57;13.40;;;;;;;11.18;55.78;101233.94;5089209;28;20195;-65
2023/12/18 08:03:02;;;;;;;19.13;10.67;;;;;;;11.35;55.17;101235.69;5092348;28;20199;-66
2023/12/18 08:05:29;;;;;;;11.83;9.90;;;;;;;11.35;54.91;101240.19;5091408;28;20754;-66
2023/12/18 08:07:57;;;;;;;11.13;10.13;;;;;;;11.40;54.22;101225.41;5091940;28;20196;-66
2023/12/18 08:10:24;;;;;;;10.43;9.60;;;;;;;11.44;54.07;101228.59;5079524;28;20196;-67
2023/12/18 08:12:51;;;;;;;10.67;9.23;;;;;;;11.24;54.37;101229.81;5079852;28;20184;-66
2023/12/18 08:15:17;;;;;;;12.80;9.53;;;;;;;11.06;54.15;101218.41;5080413;28;20214;-66
2023/12/18 08:17:44;;;;;;;11.27;10.13;;;;;;;10.90;56.21;101197.84;5071598;28;20202;-67
2023/12/18 08:20:11;;;;;;;12.53;10.90;;;;;;;10.68;56.45;101209.00;5070958;28;20188;-68
2023/12/18 08:22:38;;;;;;;10.37;9.30;;;;;;;10.47;56.66;101205.84;5083514;28;20210;-68
2023/12/18 08:25:07;;;;;;;10.70;9.53;;;;;;;10.44;57.19;101200.84;5091453;28;20252;-68
2023/12/18 08:27:34;;;;;;;12.37;9.90;;;;;;;10.24;57.48;101204.63;5090441;28;20219;-67
2023/12/18 08:30:03;;;;;;;7.97;7.27;;;;;;;10.03;57.41;101190.81;5090576;28;20668;-68
2023/12/18 08:32:30;;;;;;;9.73;8.73;;;;;;;9.94;58.60;101202.31;5090632;28;20751;-66
2023/12/18 08:35:00;;;;;;;11.67;9.40;;;;;;;9.95;59.14;101204.00;5085444;28;20259;-67
2023/12/18 08:37:27;;;;;;;11.10;10.00;;;;;;;10.03;59.03;101196.97;5092724;28;20195;-67
2023/12/18 08:39:53;;;;;;;12.03;10.17;;;;;;;10.15;60.26;101193.13;5097141;28;20183;-67
2023/12/18 08:42:22;;;;;;;17.63;15.53;;;;;;;10.62;58.19;101191.03;5088941;28;20621;-67
2023/12/18 08:44:49;;;;;;;11.17;9.03;;;;;;;10.62;58.11;101173.25;5088447;28;20290;-67
2023/12/18 08:47:16;;;;;;;9.30;8.30;;;;;;;10.69;57.84;101176.13;5088471;28;20219;-67
2023/12/18 08:49:42;;;;;;;7.70;6.97;;;;;;;10.96;57.71;101176.78;5085311;28;20240;-67
2023/12/18 08:52:09;;;;;;;9.17;8.37;;;;;;;11.16;56.66;101171.25;5074263;28;20208;-69
2023/12/18 08:54:36;;;;;;;6.83;6.33;;;;;;;11.14;55.98;101171.41;5074953;28;20196;-66
2023/12/18 08:57:03;;;;;;;7.80;6.40;;;;;;;11.00;55.84;101164.84;5084321;28;20288;-65
2023/12/18 08:59:31;;;;;;;7.23;6.60;;;;;;;11.11;56.43;101160.25;5083808;28;20258;-66
2023/12/18 09:01:58;;;;;;;7.83;6.73;;;;;;;11.30;56.91;101152.03;5074148;28;20621;-66
2023/12/18 09:04:25;;;;;;;7.10;5.33;;;;;;;11.54;55.18;101163.59;5080516;28;20630;-65
2023/12/18 09:06:52;;;;;;;5.47;5.17;;;;;;;11.76;54.97;101157.69;5091181;28;20221;-65
2023/12/18 09:09:18;;;;;;;9.53;6.00;;;;;;;11.55;53.78;101141.31;5091005;28;20684;-65
2023/12/18 09:11:45;;;;;;;5.93;5.53;;;;;;;11.53;55.18;101143.31;5091380;28;20192;-65
2023/12/18 09:14:12;;;;;;;6.93;6.43;;;;;;;11.36;55.42;101144.25;5091403;28;20258;-66
2023/12/18 09:16:40;;;;;;;7.07;6.47;;;;;;;11.02;56.71;101135.44;5090923;28;20201;-65
2023/12/18 09:19:07;;;;;;;6.67;6.17;;;;;;;10.97;56.99;101132.44;5076648;28;20659;-66
2023/12/18 09:21:34;;;;;;;6.20;5.80;;;;;;;10.77;58.02;101123.00;5082836;28;20208;-66
2023/12/18 09:24:00;;;;;;;6.50;6.00;;;;;;;10.84;57.95;101124.06;5078256;28;20285;-66
2023/12/18 09:26:27;;;;;;;6.43;5.90;;;;;;;10.88;59.57;101117.44;5076190;28;20227;-65
2023/12/18 09:28:54;;;;;;;6.77;6.13;;;;;;;10.94;58.44;101114.13;5080489;28;20188;-65
2023/12/18 09:31:21;;;;;;;5.80;5.40;;;;;;;10.99;58.37;101098.56;5070510;28;20687;-64
2023/12/18 09:33:49;;;;;;;9.33;8.33;;;;;;;11.11;59.26;101097.25;5072774;28;20640;-64
2023/12/18 09:36:17;;;;;;;8.13;7.13;;;;;;;11.00;59.04;101086.91;5086762;28;20189;-64
2023/12/18 09:38:44;;;;;;;7.83;7.07;;;;;;;11.16;59.19;101083.47;5071801;28;20656;-63
2023/12/18 09:41:11;;;;;;;8.67;7.77;;;;;;;11.43;59.37;101081.38;5090820;28;20253;-63
2023/12/18 09:43:37;;;;;;;8.20;7.50;;;;;;;11.62;59.09;101078.47;5091059;28;20193;-64
2023/12/18 09:46:04;;;;;;;7.37;6.83;;;;;;;12.05;58.22;101078.16;5070577;28;20247;-63
2023/12/18 09:48:32;;;;;;;9.47;6.70;;;;;;;12.22;56.92;101081.66;5089863;28;20201;-63
2023/12/18 09:51:02;;;;;;;6.30;5.80;;;;;;;12.36;56.74;101079.16;5080250;28;20661;-63
2023/12/18 09:53:29;;;;;;;7.97;7.10;;;;;;;12.65;60.62;101071.41;5081948;28;20184;-63
2023/12/18 09:55:57;;;;;;;5.27;4.90;;;;;;;13.01;55.15;101083.34;5083564;28;20188;-63
2023/12/18 09:58:25;;;;;;;6.90;5.43;;;;;;;13.11;54.52;101086.63;5085012;28;20249;-63
2023/12/18 10:00:52;;;;;;;6.87;6.37;;;;;;;13.05;53.35;101079.31;5085348;28;20286;-63
2023/12/18 10:03:19;;;;;;;6.03;5.60;;;;;;;12.49;54.95;101063.47;5094371;28;20655;-63
2023/12/18 10:05:46;;;;;;;5.73;5.33;;;;;;;12.51;56.18;101061.47;5093737;28;20669;-63
2023/12/18 10:08:15;;;;;;;10.03;8.13;;;;;;;12.61;56.10;101055.94;5093874;28;20198;-63
2023/12/18 10:10:44;;;;;;;7.83;7.23;;;;;;;12.73;57.13;101044.72;5094038;28;20202;-64
2023/12/18 10:13:12;;;;;;;7.07;6.57;;;;;;;13.03;56.41;101046.63;5094033;28;20733;-63
2023/12/18 10:15:39;;;;;;;7.47;6.83;;;;;;;13.18;56.14;101034.22;5092699;28;20210;-63
2023/12/18 10:18:07;;;;;;;7.13;6.53;;;;;;;13.25;56.00;101029.88;5084487;28;20192;-63
2023/12/18 10:20:34;;;;;;;8.00;7.30;;;;;;;13.25;56.23;101024.53;5081955;28;20185;-63
2023/12/18 10:23:01;;;;;;;11.93;6.40;;;;;;;13.25;56.43;101021.00;5081422;28;20191;-63
2023/12/18 10:25:31;;;;;;;6.83;6.10;;;;;;;13.37;56.05;101023.13;5081418;28;20218;-64
2023/12/18 10:27:58;;;;;;;7.53;6.50;;;;;;;13.23;56.09;101015.03;5081811;28;20286;-63
2023/12/18 10:30:27;;;;;;;6.40;5.90;;;;;;;13.26;55.98;101015.50;5082614;28;20551;-64
2023/12/18 10:32:54;;;;;;;6.47;5.83;;;;;;;13.40;55.53;101017.41;5087635;28;20242;-63
2023/12/18 10:35:22;;;;;;;6.47;5.97;;;;;;;13.49;55.17;101021.69;5083017;28;20654;-64
2023/12/18 10:37:54;;;;;;;7.30;5.30;;;;;;;13.31;55.35;101010.47;5078297;28;20199;-63
2023/12/18 10:40:23;;;;;;;7.20;6.47;;;;;;;13.34;54.86;101010.13;5090790;28;20617;-64
2023/12/18 10:43:00;;;;;;;9.67;5.40;;;;;;;13.07;54.60;101009.78;5092976;28;20674;-65
2023/12/18 10:45:28;;;;;;;5.77;5.27;;;;;;;12.79;56.30;100990.72;5093459;28;20217;-65
2023/12/18 10:47:57;;;;;;;6.73;6.13;;;;;;;12.36;57.43;100985.88;5092599;28;20254;-63
2023/12/18 10:50:26;;;;;;;7.03;5.73;;;;;;;12.37;58.26;100978.72;5093545;28;20199;-63
2023/12/18 10:52:54;;;;;;;6.70;6.20;;;;;;;12.53;58.49;100968.03;5092659;28;20210;-63
2023/12/18 10:55:21;;;;;;;6.17;5.57;;;;;;;12.55;58.22;100966.84;5093326;28;20205;-63
2023/12/18 10:57:50;;;;;;;5.33;4.93;;;;;;;12.38;58.54;100967.06;5093497;28;20217;-63
2023/12/18 11:00:21;;;;;;;8.07;7.23;;;;;;;12.36;58.65;100961.91;5093257;28;20190;-64
2023/12/18 11:02:49;;;;;;;8.00;7.30;;;;;;;12.22;59.30;100957.28;5093262;28;20194;-64
2023/12/18 11:05:18;;;;;;;8.77;6.83;;;;;;;11.91;59.97;100951.03;5092491;28;20229;-63
2023/12/18 11:07:45;;;;;;;6.70;6.07;;;;;;;11.82;60.64;100946.72;5093273;28;20224;-63
2023/12/18 11:10:12;;;;;;;7.00;6.30;;;;;;;12.06;61.06;100944.00;5092999;28;20189;-64
2023/12/18 11:12:41;;;;;;;7.30;5.87;;;;;;;12.12;60.65;100943.31;5093003;28;20200;-64
2023/12/18 11:15:15;;;;;;;6.13;5.67;;;;;;;12.03;61.79;100936.34;5092450;28;20232;-64
2023/12/18 11:17:55;;;;;;;5.40;4.97;;;;;;;12.22;61.06;100930.66;5093501;28;20193;-62
2023/12/18 11:20:27;;;;;;;5.40;4.90;;;;;;;12.25;60.74;100927.63;5092745;28;20367;-63